Time;durP1;ratioP1;P1;durP2;ratioP2;P2;SDS_P1;SDS_P2;PMS_P1;PMS_P2;Temp;Humidity;BMP_temperature;BMP_pressure;BME280_temperature;BME280_humidity;BME280_pressure;Samples;Min_cycle;Max_cycle;Signal;HPM_P1;HPM_P2
2022/04/03 00:01:15;;;;;;;17.58;7.45;;;;;;;-3.18;61.31;100751.22;4976067;28;20125;-64
2022/04/03 00:03:41;;;;;;;14.50;6.93;;;;;;;-3.22;60.46;100738.41;4975699;28;20073;-65
2022/04/03 00:06:07;;;;;;;21.07;8.50;;;;;;;-3.19;61.24;100743.44;4975847;28;20553;-66
2022/04/03 00:08:40;;;;;;;17.70;7.70;;;;;;;-3.25;61.04;100743.75;4976100;28;20062;-67
2022/04/03 00:11:13;;;;;;;16.58;7.70;;;;;;;-3.20;61.38;100746.97;4976864;28;20047;-67
2022/04/03 00:13:38;;;;;;;26.73;8.00;;;;;;;-3.23;61.36;100739.31;4961996;28;20071;-64
2022/04/03 00:16:05;;;;;;;59.10;10.23;;;;;;;-3.29;62.11;100748.28;4977447;28;20046;-65
2022/04/03 00:18:32;;;;;;;62.28;11.57;;;;;;;-3.38;61.89;100742.69;4978024;28;20031;-67
2022/04/03 00:20:58;;;;;;;25.95;9.35;;;;;;;-3.36;62.32;100751.25;4978080;28;20043;-67
2022/04/03 00:23:23;;;;;;;33.97;9.30;;;;;;;-3.49;62.80;100733.59;4978973;28;20050;-64
2022/04/03 00:25:50;;;;;;;18.23;8.90;;;;;;;-3.42;62.31;100747.19;4979193;28;20043;-66
2022/04/03 00:28:15;;;;;;;17.88;7.63;;;;;;;-3.51;62.61;100730.25;4977210;28;20037;-67
2022/04/03 00:30:42;;;;;;;18.07;8.87;;;;;;;-3.46;62.85;100736.09;4975769;28;20035;-67
2022/04/03 00:33:08;;;;;;;19.63;9.85;;;;;;;-3.46;63.11;100737.84;4976747;28;20041;-66
2022/04/03 00:35:34;;;;;;;17.70;9.25;;;;;;;-3.49;63.42;100733.59;4957720;28;20089;-67
2022/04/03 00:38:00;;;;;;;24.05;9.73;;;;;;;-3.52;63.07;100736.38;4974942;28;20059;-67
2022/04/03 00:40:50;;;;;;;37.97;9.15;;;;;;;-3.63;63.20;100730.84;4974977;28;20433;-66
2022/04/03 00:43:16;;;;;;;14.77;7.50;;;;;;;-3.59;63.52;100736.75;4974992;28;20575;-66
2022/04/03 00:45:45;;;;;;;28.63;9.00;;;;;;;-3.57;63.65;100730.53;4975244;28;20046;-65
2022/04/03 00:48:10;;;;;;;21.42;7.25;;;;;;;-3.63;63.92;100719.59;4977231;28;20039;-67
2022/04/03 00:50:36;;;;;;;13.00;8.10;;;;;;;-3.67;63.52;100716.28;4975573;28;20113;-66
2022/04/03 00:53:01;;;;;;;14.73;7.57;;;;;;;-4.03;63.64;100659.06;4975509;28;20030;-66
2022/04/03 00:55:27;;;;;;;13.17;7.70;;;;;;;-3.67;63.73;100716.28;4957683;28;20118;-64
2022/04/03 00:57:52;;;;;;;13.10;8.57;;;;;;;-3.73;63.71;100703.59;4974812;28;20069;-65
2022/04/03 01:00:18;;;;;;;15.37;8.03;;;;;;;-3.67;63.71;100711.09;4974651;28;20126;-67
2022/04/03 01:02:43;;;;;;;16.43;7.50;;;;;;;-3.69;63.98;100696.47;4975624;28;20061;-67
2022/04/03 01:05:09;;;;;;;27.63;7.53;;;;;;;-3.67;63.69;100687.66;4974382;28;20043;-65
2022/04/03 01:07:35;;;;;;;12.83;7.07;;;;;;;-3.67;64.11;100690.28;4974374;28;20055;-65
2022/04/03 01:10:03;;;;;;;13.90;7.97;;;;;;;-3.63;63.68;100691.81;4957081;28;20050;-65
2022/04/03 01:12:29;;;;;;;12.38;7.07;;;;;;;-3.96;63.84;100649.19;4974341;28;20039;-66
2022/04/03 01:14:54;;;;;;;11.13;7.83;;;;;;;-3.74;64.34;100683.69;4974077;28;20065;-66
2022/04/03 01:17:20;;;;;;;15.27;8.30;;;;;;;-3.73;64.37;100685.38;4974523;28;20063;-65
2022/04/03 01:19:45;;;;;;;12.97;8.23;;;;;;;-3.76;64.40;100686.34;4974390;28;20077;-64
2022/04/03 01:22:12;;;;;;;15.57;7.87;;;;;;;-3.83;63.96;100673.69;4976603;28;20038;-66
2022/04/03 01:24:42;;;;;;;21.98;8.18;;;;;;;-3.71;64.54;100683.53;4977523;28;20042;-60
2022/04/03 01:27:08;;;;;;;23.42;8.57;;;;;;;-3.71;64.54;100690.50;4959972;28;20101;-60
2022/04/03 01:29:33;;;;;;;21.67;7.50;;;;;;;-3.71;63.90;100693.09;4974685;28;20034;-62
2022/04/03 01:31:59;;;;;;;39.03;9.80;;;;;;;-3.70;64.54;100682.63;4974580;28;20066;-61
2022/04/03 01:34:24;;;;;;;44.90;9.60;;;;;;;-3.72;64.31;100681.84;4974682;28;20118;-62
2022/04/03 01:36:50;;;;;;;64.57;12.93;;;;;;;-3.73;64.30;100674.97;4974292;28;20034;-62
2022/04/03 01:39:15;;;;;;;30.57;10.13;;;;;;;-3.72;64.85;100683.59;4956745;28;20042;-62
2022/04/03 01:41:43;;;;;;;33.30;11.40;;;;;;;-3.73;64.75;100682.75;4973951;28;20498;-61
2022/04/03 01:44:12;;;;;;;24.17;8.07;;;;;;;-3.80;65.05;100663.13;4979833;28;20062;-61
2022/04/03 01:46:39;;;;;;;39.25;9.90;;;;;;;-3.79;65.73;100670.03;4958792;28;20054;-62
2022/04/03 01:49:05;;;;;;;50.13;10.70;;;;;;;-3.82;65.89;100667.56;4975626;28;20574;-62
2022/04/03 01:51:32;;;;;;;42.20;10.82;;;;;;;-3.86;65.76;100658.22;4973979;28;20077;-62
2022/04/03 01:53:58;;;;;;;34.83;9.90;;;;;;;-3.90;66.20;100652.34;4973718;28;20031;-61
2022/04/03 01:56:24;;;;;;;45.70;10.00;;;;;;;-3.88;66.03;100660.06;4973803;28;20565;-62
2022/04/03 01:58:49;;;;;;;39.57;11.33;;;;;;;-3.95;65.80;100648.28;4973553;28;20034;-61
2022/04/03 02:01:15;;;;;;;47.53;10.00;;;;;;;-3.95;66.98;100648.28;4972996;28;20035;-62
2022/04/03 02:03:40;;;;;;;50.13;10.30;;;;;;;-3.98;67.10;100651.88;4975079;28;20121;-61
2022/04/03 02:06:06;;;;;;;44.03;10.77;;;;;;;-4.00;67.44;100655.47;4973625;28;20081;-61
2022/04/03 02:08:32;;;;;;;29.47;10.00;;;;;;;-4.02;67.97;100655.53;4973218;28;20544;-62
2022/04/03 02:10:58;;;;;;;40.60;10.30;;;;;;;-4.09;68.16;100641.09;4973336;28;20097;-62
2022/04/03 02:13:24;;;;;;;32.53;9.67;;;;;;;-4.03;67.48;100655.59;4973474;28;20506;-61
2022/04/03 02:15:49;;;;;;;39.63;9.93;;;;;;;-4.08;68.26;100648.84;4973335;28;20043;-63
2022/04/03 02:18:15;;;;;;;37.17;9.47;;;;;;;-4.07;68.60;100652.28;4974778;28;20046;-63
2022/04/03 02:20:40;;;;;;;32.77;11.93;;;;;;;-4.15;68.68;100631.84;4973273;28;20042;-62
2022/04/03 02:23:06;;;;;;;22.47;9.23;;;;;;;-4.16;68.38;100640.56;4973428;28;20118;-61
2022/04/03 02:25:32;;;;;;;24.13;7.60;;;;;;;-4.13;68.58;100648.22;4973803;28;20039;-62
2022/04/03 02:27:59;;;;;;;15.00;8.00;;;;;;;-4.12;67.94;100647.31;4972323;28;20121;-61
2022/04/03 02:30:24;;;;;;;12.13;8.20;;;;;;;-4.11;68.18;100651.59;4973300;28;20109;-62
2022/04/03 02:32:50;;;;;;;10.47;7.50;;;;;;;-4.13;67.62;100634.38;4975506;28;20526;-63
2022/04/03 02:35:15;;;;;;;17.83;7.70;;;;;;;-4.10;67.82;100634.22;4973826;28;20120;-61
2022/04/03 02:37:42;;;;;;;13.30;7.53;;;;;;;-4.14;68.08;100633.53;4974846;28;20038;-61
2022/04/03 02:40:10;;;;;;;11.73;7.35;;;;;;;-4.13;68.46;100629.16;4973234;28;20042;-63
2022/04/03 02:42:36;;;;;;;15.88;7.63;;;;;;;-4.23;67.77;100623.56;4973026;28;20067;-61
2022/04/03 02:45:04;;;;;;;20.37;10.03;;;;;;;-4.27;68.22;100627.22;4955714;28;20120;-62
2022/04/03 02:47:29;;;;;;;12.57;8.30;;;;;;;-4.25;68.15;100641.00;4973906;28;20045;-60
2022/04/03 02:49:55;;;;;;;13.77;8.70;;;;;;;-4.29;69.03;100633.41;4973803;28;20126;-62
2022/04/03 02:52:21;;;;;;;19.20;10.97;;;;;;;-4.32;68.64;100618.81;4955671;28;20039;-63
2022/04/03 02:54:47;;;;;;;23.27;10.40;;;;;;;-4.32;68.60;100621.41;4972942;28;20120;-60
2022/04/03 02:57:14;;;;;;;25.67;9.90;;;;;;;-4.32;69.21;100624.00;4972747;28;20034;-61
2022/04/03 02:59:40;;;;;;;25.55;10.98;;;;;;;-4.28;68.94;100628.16;4955597;28;20070;-61
2022/04/03 03:02:05;;;;;;;20.80;11.00;;;;;;;-4.30;70.04;100621.34;4974122;28;20117;-62
2022/04/03 03:04:37;;;;;;;14.87;10.37;;;;;;;-4.34;70.10;100615.41;4974132;28;20039;-63
2022/04/03 03:07:06;;;;;;;18.98;10.70;;;;;;;-4.39;70.37;100613.03;4972833;28;20082;-62
2022/04/03 03:09:33;;;;;;;26.98;9.95;;;;;;;-4.73;70.46;100555.75;4972808;28;20090;-62
2022/04/03 03:11:59;;;;;;;16.63;10.17;;;;;;;-4.33;70.70;100616.28;4973033;28;20042;-61
2022/04/03 03:14:26;;;;;;;24.05;10.70;;;;;;;-4.39;70.75;100601.78;4974773;28;20266;-62
2022/04/03 03:16:52;;;;;;;19.13;10.00;;;;;;;-4.38;70.97;100600.88;4956361;28;20053;-61
2022/04/03 03:19:18;;;;;;;15.80;8.53;;;;;;;-4.35;71.76;100611.13;4973253;28;20035;-62
2022/04/03 03:21:43;;;;;;;18.93;8.83;;;;;;;-4.39;71.61;100600.03;4972619;28;20049;-63
2022/04/03 03:24:09;;;;;;;16.10;9.27;;;;;;;-4.65;71.60;100547.59;4972723;28;20038;-62
2022/04/03 03:26:35;;;;;;;18.53;9.00;;;;;;;-4.37;72.29;100603.41;4972996;28;20035;-62
2022/04/03 03:29:01;;;;;;;18.98;10.27;;;;;;;-4.40;73.20;100594.91;4973189;28;20035;-62
2022/04/03 03:31:27;;;;;;;16.77;9.30;;;;;;;-4.42;73.26;100594.97;4973064;28;20050;-63
2022/04/03 03:33:52;;;;;;;16.47;8.97;;;;;;;-4.52;73.64;100569.50;4975030;28;20482;-61
2022/04/03 03:36:18;;;;;;;15.37;9.73;;;;;;;-4.42;73.69;100587.19;4972626;28;20034;-61
2022/04/03 03:38:44;;;;;;;16.70;8.63;;;;;;;-4.33;74.53;100605.88;4974280;28;20070;-61
2022/04/03 03:41:09;;;;;;;18.13;7.90;;;;;;;-4.32;74.05;100597.16;4976077;28;20049;-61
2022/04/03 03:43:35;;;;;;;13.40;7.73;;;;;;;-4.38;74.45;100595.69;4976123;28;20050;-63
2022/04/03 03:46:02;;;;;;;13.43;8.65;;;;;;;-4.53;75.08;100568.66;4976185;28;20038;-61
2022/04/03 03:48:27;;;;;;;14.30;8.00;;;;;;;-4.54;75.05;100576.53;4977009;28;20050;-62
2022/04/03 03:50:53;;;;;;;14.13;8.67;;;;;;;-4.43;75.70;100589.84;4976348;28;20035;-62
2022/04/03 03:53:20;;;;;;;13.50;8.80;;;;;;;-4.55;75.85;100564.44;4975922;28;20042;-61
2022/04/03 03:55:45;;;;;;;14.32;8.55;;;;;;;-4.44;75.17;100589.00;4975962;28;20498;-61
2022/04/03 03:58:11;;;;;;;16.47;10.10;;;;;;;-4.47;76.22;100588.31;4976241;28;20037;-63
2022/04/03 04:00:37;;;;;;;18.37;8.63;;;;;;;-4.71;75.42;100556.50;4976192;28;20491;-62
2022/04/03 04:03:03;;;;;;;16.35;9.70;;;;;;;-4.53;75.62;100591.22;4975844;28;20498;-62
2022/04/03 04:05:28;;;;;;;14.73;9.70;;;;;;;-4.43;75.75;100593.28;4976241;28;20038;-62
2022/04/03 04:07:55;;;;;;;12.80;8.80;;;;;;;-4.40;75.24;100581.91;4958330;28;20060;-61
2022/04/03 04:10:21;;;;;;;11.38;8.00;;;;;;;-4.29;75.25;100587.47;4975605;28;20048;-62
2022/04/03 04:12:47;;;;;;;14.93;9.13;;;;;;;-4.45;74.91;100556.13;4958367;28;20414;-63
2022/04/03 04:15:14;;;;;;;12.70;9.32;;;;;;;-4.23;74.73;100581.97;4976272;28;20418;-64
2022/04/03 04:17:41;;;;;;;13.75;9.45;;;;;;;-4.30;74.95;100590.97;4977455;28;20509;-63
2022/04/03 04:20:11;;;;;;;12.18;8.32;;;;;;;-4.34;74.83;100581.63;4976870;28;20453;-62
2022/04/03 04:22:37;;;;;;;16.65;9.60;;;;;;;-4.31;74.39;100591.06;4975223;28;20138;-60
2022/04/03 04:25:04;;;;;;;11.82;8.90;;;;;;;-4.38;74.54;100577.47;4957961;28;20046;-63
2022/04/03 04:27:30;;;;;;;12.77;9.77;;;;;;;-4.31;73.84;100578.91;4958341;28;20045;-62
2022/04/03 04:29:55;;;;;;;17.57;9.87;;;;;;;-4.28;73.17;100573.53;4975571;28;20035;-62
2022/04/03 04:32:21;;;;;;;16.70;9.90;;;;;;;-4.17;72.66;100566.06;4975183;28;20414;-62
2022/04/03 04:34:48;;;;;;;25.40;10.20;;;;;;;-4.36;72.55;100542.69;4977521;28;20045;-61
2022/04/03 04:37:14;;;;;;;16.60;10.65;;;;;;;-4.28;72.07;100549.31;4975073;28;20074;-62
2022/04/03 04:39:39;;;;;;;14.83;9.63;;;;;;;-4.23;72.04;100555.13;4975167;28;20065;-63
2022/04/03 04:42:05;;;;;;;12.17;8.00;;;;;;;-4.07;71.68;100567.28;4975565;28;20042;-61
2022/04/03 04:44:55;;;;;;;14.70;8.90;;;;;;;-4.00;71.03;100567.00;4975418;28;20082;-61
2022/04/03 04:47:21;;;;;;;12.77;8.90;;;;;;;-3.99;71.77;100568.69;4975477;28;20502;-62
2022/04/03 04:49:46;;;;;;;17.43;8.97;;;;;;;-3.98;71.48;100560.81;4958262;28;20122;-63
2022/04/03 04:52:12;;;;;;;16.30;7.90;;;;;;;-3.86;71.12;100554.16;4974829;28;20469;-61
2022/04/03 04:54:38;;;;;;;13.70;8.00;;;;;;;-3.77;70.98;100558.88;4975145;28;20045;-61
2022/04/03 04:57:04;;;;;;;14.68;8.55;;;;;;;-3.82;70.82;100545.28;4975023;28;20492;-61
2022/04/03 04:59:29;;;;;;;14.53;8.63;;;;;;;-3.78;70.38;100554.59;4957407;28;20121;-63
2022/04/03 05:01:56;;;;;;;12.37;9.37;;;;;;;-3.77;70.81;100545.88;4974687;28;20513;-60
2022/04/03 05:04:23;;;;;;;12.32;7.63;;;;;;;-3.78;70.57;100544.19;4957870;28;20035;-61
2022/04/03 05:06:51;;;;;;;18.00;8.70;;;;;;;-3.69;70.66;100553.31;4974946;28;20045;-62
2022/04/03 05:09:19;;;;;;;12.25;8.18;;;;;;;-3.65;71.42;100547.88;4957581;28;20128;-62
2022/04/03 05:11:49;;;;;;;17.00;8.32;;;;;;;-3.61;71.18;100541.59;4974440;28;20124;-62
2022/04/03 05:14:14;;;;;;;16.98;8.68;;;;;;;-3.62;70.70;100546.88;4974526;28;20035;-62
2022/04/03 05:16:40;;;;;;;11.57;8.70;;;;;;;-3.65;71.72;100531.44;4974428;28;20042;-63
2022/04/03 05:19:06;;;;;;;31.90;11.53;;;;;;;-3.54;71.53;100539.50;4974966;28;20458;-63
2022/04/03 05:21:32;;;;;;;20.90;9.43;;;;;;;-3.46;70.49;100538.22;4975322;28;20294;-61
2022/04/03 05:23:57;;;;;;;16.77;9.57;;;;;;;-3.39;71.22;100527.50;4974352;28;20035;-61
2022/04/03 05:26:23;;;;;;;14.17;10.10;;;;;;;-3.31;70.62;100535.72;4974490;28;20041;-61
2022/04/03 05:28:48;;;;;;;18.40;8.63;;;;;;;-3.29;70.59;100526.06;4974296;28;20027;-61
2022/04/03 05:31:14;;;;;;;14.57;8.40;;;;;;;-3.63;70.47;100461.91;4974709;28;20131;-62
2022/04/03 05:33:40;;;;;;;13.27;8.50;;;;;;;-3.21;70.60;100523.91;4974016;28;20134;-62
2022/04/03 05:36:06;;;;;;;14.25;8.52;;;;;;;-3.14;70.99;100533.09;4975759;28;20039;-64
2022/04/03 05:38:32;;;;;;;12.97;8.33;;;;;;;-3.05;69.94;100536.97;4974377;28;20035;-61
2022/04/03 05:40:57;;;;;;;15.63;9.60;;;;;;;-3.03;70.06;100524.69;4973887;28;20046;-61
2022/04/03 05:43:23;;;;;;;11.40;7.80;;;;;;;-2.92;70.55;100531.00;4974165;28;20398;-62
2022/04/03 05:45:51;;;;;;;15.23;8.75;;;;;;;-2.86;70.15;100525.47;4973947;28;20039;-62
2022/04/03 05:48:16;;;;;;;13.93;9.07;;;;;;;-2.81;70.50;100536.50;4974215;28;20186;-61
2022/04/03 05:50:42;;;;;;;20.17;8.03;;;;;;;-2.90;69.80;100515.28;4957222;28;20049;-63
2022/04/03 05:53:07;;;;;;;14.70;8.30;;;;;;;-2.74;70.28;100538.75;4974535;28;20122;-63
2022/04/03 05:55:33;;;;;;;12.13;8.87;;;;;;;-2.65;70.70;100535.66;4974199;28;20035;-63
2022/04/03 05:57:58;;;;;;;17.03;8.13;;;;;;;-2.56;70.50;100541.22;4973857;28;20090;-60
2022/04/03 06:00:25;;;;;;;102.77;14.67;;;;;;;-2.49;70.02;100541.72;4973727;28;20049;-61
2022/04/03 06:02:59;;;;;;;39.05;9.30;;;;;;;-2.58;70.12;100517.00;4973758;28;20038;-62
2022/04/03 06:05:29;;;;;;;11.43;7.93;;;;;;;-2.49;70.99;100541.72;4974495;28;20051;-61
2022/04/03 06:07:55;;;;;;;11.40;7.22;;;;;;;-2.58;71.71;100522.22;4973962;28;20146;-61
2022/04/03 06:10:23;;;;;;;11.47;6.90;;;;;;;-2.46;72.16;100530.25;4940372;28;20046;-62
2022/04/03 06:13:00;;;;;;;11.82;6.75;;;;;;;-2.41;72.23;100518.63;4973903;28;20078;-62
2022/04/03 06:15:33;;;;;;;10.82;6.63;;;;;;;-2.27;72.70;100529.16;4973440;28;20047;-61
2022/04/03 06:18:03;;;;;;;8.55;6.53;;;;;;;-2.24;72.71;100521.16;4956611;28;20031;-64
2022/04/03 06:20:30;;;;;;;14.20;6.68;;;;;;;-2.22;73.42;100519.28;4985562;28;20132;-63
2022/04/03 06:22:55;;;;;;;9.43;5.60;;;;;;;-2.11;73.81;100523.88;4973653;28;20410;-62
2022/04/03 06:25:21;;;;;;;6.93;5.73;;;;;;;-2.28;73.81;100485.75;4974163;28;20038;-60
2022/04/03 06:27:48;;;;;;;8.27;5.47;;;;;;;-2.01;73.76;100516.41;4956408;28;20047;-66
2022/04/03 06:30:13;;;;;;;8.57;6.07;;;;;;;-2.04;74.34;100499.13;4973760;28;20038;-66
2022/04/03 06:32:39;;;;;;;8.17;6.23;;;;;;;-1.95;74.05;100500.38;4973119;28;20387;-61
2022/04/03 06:35:06;;;;;;;16.10;8.37;;;;;;;-1.88;74.11;100507.75;4974331;28;20066;-61
2022/04/03 06:37:32;;;;;;;13.07;6.47;;;;;;;-1.78;73.71;100504.59;4973592;28;20113;-62
2022/04/03 06:39:58;;;;;;;11.10;7.17;;;;;;;-1.75;73.43;100502.63;4972913;28;20134;-64
2022/04/03 06:42:23;;;;;;;13.43;7.70;;;;;;;-1.75;73.20;100494.81;4973044;28;20434;-62
2022/04/03 06:44:49;;;;;;;8.07;5.73;;;;;;;-1.67;72.79;100504.81;4973021;28;20038;-62
2022/04/03 06:47:14;;;;;;;12.07;7.23;;;;;;;-1.69;73.61;100497.06;4972956;28;20043;-61
2022/04/03 06:49:40;;;;;;;11.57;6.37;;;;;;;-1.67;73.63;100492.59;4973844;28;20035;-60
2022/04/03 06:52:08;;;;;;;11.00;6.10;;;;;;;-1.59;73.86;100492.97;4973652;28;20137;-63
2022/04/03 06:54:34;;;;;;;13.23;6.85;;;;;;;-1.43;73.64;100498.13;4972734;28;20054;-62
2022/04/03 06:57:00;;;;;;;10.38;7.13;;;;;;;-1.37;72.72;100499.53;4939370;28;20031;-62
2022/04/03 06:59:26;;;;;;;8.30;6.37;;;;;;;-1.32;72.38;100494.84;4974739;28;20095;-60
2022/04/03 07:01:51;;;;;;;9.70;6.00;;;;;;;-1.27;72.38;100483.19;4982291;28;20097;-62
2022/04/03 07:04:17;;;;;;;15.10;8.50;;;;;;;-1.15;72.56;100491.22;4972734;28;20141;-62
2022/04/03 07:06:46;;;;;;;6.13;5.10;;;;;;;-1.13;71.81;100490.19;4973746;28;20136;-62
2022/04/03 07:09:40;;;;;;;12.90;6.28;;;;;;;-1.09;72.17;100480.38;4959356;28;20129;-61
2022/04/03 07:12:06;;;;;;;;;;;;;;;-0.96;71.73;100492.56;4973411;28;20137;-64
2022/04/03 07:14:32;;;;;;;14.03;6.00;;;;;;;-0.94;72.40;100485.47;4976102;28;20008;-62
2022/04/03 07:16:57;;;;;;;12.33;6.43;;;;;;;-1.03;72.62;100475.59;4976833;28;20166;-63
2022/04/03 07:19:23;;;;;;;10.10;6.07;;;;;;;-0.94;71.91;100480.25;4976794;28;20446;-64
2022/04/03 07:21:50;;;;;;;10.73;6.23;;;;;;;-1.01;72.01;100473.72;4977584;28;20049;-63
2022/04/03 07:24:17;;;;;;;12.00;6.65;;;;;;;-0.86;72.04;100479.78;4959246;28;20038;-64
2022/04/03 07:26:42;;;;;;;7.78;5.95;;;;;;;-0.84;71.84;100474.47;4976526;28;20577;-63
2022/04/03 07:29:08;;;;;;;11.73;5.20;;;;;;;-0.78;71.93;100468.84;4976539;28;20125;-61
2022/04/03 07:31:33;;;;;;;8.03;4.97;;;;;;;-0.78;71.81;100461.00;4976280;28;20513;-63
2022/04/03 07:33:59;;;;;;;5.57;4.93;;;;;;;-0.82;71.70;100467.34;4976441;28;20074;-64
2022/04/03 07:36:24;;;;;;;10.97;5.30;;;;;;;-0.91;71.51;100453.06;4976962;28;20039;-65
2022/04/03 07:38:52;;;;;;;7.33;5.00;;;;;;;-0.85;71.63;100442.25;4958898;28;20126;-62
2022/04/03 07:41:19;;;;;;;12.15;5.28;;;;;;;-0.78;71.26;100443.53;4976283;28;20108;-70
2022/04/03 07:43:45;;;;;;;9.30;5.60;;;;;;;-0.83;71.66;100426.47;4977900;28;20502;-71
2022/04/03 07:46:15;;;;;;;10.60;5.43;;;;;;;-0.59;71.07;100456.25;4978837;28;20037;-71
2022/04/03 07:48:43;;;;;;;11.40;5.47;;;;;;;-0.51;71.76;100456.59;4958249;28;20095;-64
2022/04/03 07:51:09;;;;;;;7.22;6.43;;;;;;;-0.44;71.88;100459.66;4984963;28;20034;-63
2022/04/03 07:53:34;;;;;;;9.63;5.23;;;;;;;-0.41;71.82;100441.97;4984243;28;20041;-64
2022/04/03 07:55:59;;;;;;;13.57;5.87;;;;;;;-0.35;71.37;100443.34;4983644;28;20042;-63
2022/04/03 07:58:25;;;;;;;6.70;4.77;;;;;;;-0.28;70.81;100435.97;4986237;28;20041;-61
2022/04/03 08:00:50;;;;;;;9.23;5.13;;;;;;;-0.27;70.78;100440.25;4984931;28;20049;-65
2022/04/03 08:03:16;;;;;;;21.30;6.10;;;;;;;-0.28;71.16;100430.72;4967055;28;20038;-62
2022/04/03 08:05:41;;;;;;;11.67;4.90;;;;;;;-0.06;70.65;100430.94;4986790;28;20038;-62
2022/04/03 08:08:07;;;;;;;8.07;3.97;;;;;;;0.01;69.04;100427.00;4982082;28;20061;-63
2022/04/03 08:10:34;;;;;;;10.83;4.13;;;;;;;0.16;68.40;100427.72;4984815;28;20042;-62
2022/04/03 08:13:00;;;;;;;9.73;4.87;;;;;;;0.24;67.78;100428.88;4968495;28;20066;-66
2022/04/03 08:15:26;;;;;;;13.67;4.87;;;;;;;0.35;67.43;100414.22;4985749;28;20262;-64
2022/04/03 08:17:51;;;;;;;8.30;5.07;;;;;;;0.51;66.48;100427.91;4987558;28;20477;-64
2022/04/03 08:20:18;;;;;;;9.47;5.13;;;;;;;0.58;66.73;100426.56;4969131;28;20109;-63
2022/04/03 08:22:45;;;;;;;11.13;4.33;;;;;;;0.46;66.37;100411.69;4983695;28;20034;-63
2022/04/03 08:25:12;;;;;;;5.27;3.10;;;;;;;0.51;64.06;100414.81;4980663;28;20716;-62
2022/04/03 08:27:44;;;;;;;10.63;3.63;;;;;;;0.56;64.43;100428.44;4983485;28;20320;-63
2022/04/03 08:30:16;;;;;;;5.33;3.87;;;;;;;0.59;62.68;100423.84;4951052;28;20356;-62
2022/04/03 08:32:42;;;;;;;8.83;3.13;;;;;;;0.69;60.45;100424.03;4994350;28;20787;-63
2022/04/03 08:35:10;;;;;;;5.17;2.70;;;;;;;0.72;60.57;100421.19;4994467;28;20288;-63
2022/04/03 08:37:35;;;;;;;7.57;3.23;;;;;;;0.75;59.39;100415.72;4995545;28;20030;-64
2022/04/03 08:40:03;;;;;;;11.37;2.97;;;;;;;0.73;57.49;100404.50;4994315;28;20273;-62
2022/04/03 08:42:29;;;;;;;10.33;2.80;;;;;;;0.87;58.05;100416.66;4994353;28;20117;-64
2022/04/03 08:44:55;;;;;;;3.47;3.00;;;;;;;0.87;57.97;100412.25;4976792;28;20369;-63
2022/04/03 08:47:22;;;;;;;6.00;3.13;;;;;;;1.04;56.67;100416.28;4993866;28;20030;-63
2022/04/03 08:50:02;;;;;;;11.73;3.40;;;;;;;1.08;55.81;100382.78;4994388;28;20450;-62
2022/04/03 08:52:31;;;;;;;6.00;3.23;;;;;;;1.41;54.68;100408.34;4995288;28;20719;-63
2022/04/03 08:54:58;;;;;;;8.63;3.13;;;;;;;1.42;52.08;100397.72;4994148;28;20301;-64
2022/04/03 08:57:24;;;;;;;6.30;3.07;;;;;;;1.29;52.82;100398.75;4994412;28;20097;-62
2022/04/03 08:59:51;;;;;;;13.87;3.47;;;;;;;1.43;52.43;100404.66;4994152;28;20269;-63
2022/04/03 09:02:16;;;;;;;8.03;2.50;;;;;;;1.59;49.89;100400.91;4994247;28;20505;-64
2022/04/03 09:04:41;;;;;;;7.90;3.13;;;;;;;1.74;49.62;100386.66;4993999;28;20254;-63
2022/04/03 09:07:17;;;;;;;9.47;3.17;;;;;;;1.96;49.91;100391.94;4994703;28;20058;-63
2022/04/03 09:09:43;;;;;;;10.70;2.73;;;;;;;2.05;49.52;100391.25;4993932;28;20042;-64
2022/04/03 09:12:15;;;;;;;10.40;3.70;;;;;;;2.04;49.85;100394.84;4993767;28;20350;-62
2022/04/03 09:14:49;;;;;;;7.83;2.83;;;;;;;1.99;50.08;100385.59;4993640;28;20561;-64
2022/04/03 09:17:34;;;;;;;7.63;2.83;;;;;;;2.09;50.06;100382.19;4993984;28;20364;-64
2022/04/03 09:20:12;;;;;;;15.00;4.83;;;;;;;2.06;49.94;100382.41;4993999;28;20273;-69
2022/04/03 09:22:40;;;;;;;10.30;2.95;;;;;;;1.97;50.53;100382.25;4978220;28;20288;-65
2022/04/03 09:25:07;;;;;;;10.03;2.70;;;;;;;1.77;50.27;100340.00;4993574;28;20073;-74
2022/04/03 09:27:45;;;;;;;3.80;2.90;;;;;;;2.09;50.13;100370.84;4993734;28;20270;-72
2022/04/03 09:30:11;;;;;;;7.63;3.22;;;;;;;2.12;50.22;100376.69;4976543;28;20274;-67
2022/04/03 09:33:22;;;;;;;6.90;3.10;;;;;;;2.11;50.52;100361.03;4975526;28;20065;-76
2022/04/03 09:35:59;;;;;;;5.23;3.00;;;;;;;2.16;51.03;100367.63;4997244;28;20059;-74
2022/04/03 09:38:29;;;;;;;7.40;3.00;;;;;;;2.28;50.96;100364.97;4994407;28;20277;-71
2022/04/03 09:40:56;;;;;;;6.73;2.70;;;;;;;2.53;51.07;100367.38;4993062;28;20321;-67
2022/04/03 09:43:31;;;;;;;5.33;3.00;;;;;;;2.59;50.39;100369.50;4975922;28;20266;-72
2022/04/03 09:46:03;;;;;;;11.93;2.57;;;;;;;2.73;49.57;100361.38;4975809;28;20261;-63
2022/04/03 09:48:40;;;;;;;3.27;2.07;;;;;;;3.02;48.96;100369.56;4993088;28;20273;-62
2022/04/03 09:51:10;;;;;;;4.30;2.47;;;;;;;3.31;48.14;100348.78;4993882;28;20630;-62
2022/04/03 09:54:04;;;;;;;9.18;2.55;;;;;;;3.64;48.18;100354.84;4993119;28;20034;-63
2022/04/03 09:56:33;;;;;;;11.23;2.50;;;;;;;3.64;48.26;100353.03;4970309;28;20128;-62
2022/04/03 09:58:59;;;;;;;;;;;;;;;3.75;48.44;100344.22;4979505;28;20309;-63
2022/04/03 10:01:34;;;;;;;6.90;2.20;;;;;;;3.63;47.59;100353.16;4975021;28;20445;-61
2022/04/03 10:04:01;;;;;;;14.87;1.97;;;;;;;3.47;47.24;100340.47;4974050;28;20035;-60
2022/04/03 10:06:28;;;;;;;2.43;1.60;;;;;;;3.66;47.15;100345.00;4992406;28;20269;-63
2022/04/03 10:08:54;;;;;;;4.63;1.87;;;;;;;3.71;46.45;100335.75;4993072;28;20293;-63
2022/04/03 10:11:20;;;;;;;4.73;1.97;;;;;;;3.78;47.47;100340.53;4993257;28;20270;-62
2022/04/03 10:13:47;;;;;;;4.00;1.90;;;;;;;3.71;48.47;100342.81;4993103;28;20030;-64
2022/04/03 10:16:15;;;;;;;7.27;2.47;;;;;;;3.56;49.31;100325.69;4992911;28;20266;-62
2022/04/03 10:18:42;;;;;;;7.63;2.80;;;;;;;3.70;49.54;100341.16;4992741;28;20269;-62
2022/04/03 10:21:15;;;;;;;8.17;2.30;;;;;;;3.64;49.21;100341.66;4975879;28;20868;-61
2022/04/03 10:23:43;;;;;;;8.27;1.53;;;;;;;3.47;49.37;100339.59;4993480;28;20269;-62
2022/04/03 10:26:11;;;;;;;4.93;2.10;;;;;;;3.22;50.37;100325.00;4993381;28;20306;-62
2022/04/03 10:28:40;;;;;;;7.20;2.63;;;;;;;3.27;51.77;100328.94;4975717;28;20699;-62
2022/04/03 10:31:08;;;;;;;6.30;2.17;;;;;;;3.41;50.76;100314.63;4992829;28;20034;-65
2022/04/03 10:33:39;;;;;;;13.90;4.63;;;;;;;3.75;51.15;100317.88;4992395;28;20124;-63
2022/04/03 10:36:04;;;;;;;12.13;2.93;;;;;;;4.02;50.76;100325.25;4976242;28;20045;-61
2022/04/03 10:38:44;;;;;;;13.77;4.07;;;;;;;4.17;48.83;100323.94;4992716;28;20272;-61
2022/04/03 10:41:28;;;;;;;15.23;3.90;;;;;;;4.07;49.65;100330.16;4992381;28;20586;-67
2022/04/03 10:44:18;;;;;;;9.77;3.30;;;;;;;4.02;50.64;100319.97;4992229;28;20277;-62
2022/04/03 10:47:01;;;;;;;7.90;3.03;;;;;;;3.87;51.14;100327.41;4992665;28;20293;-63
2022/04/03 10:49:31;;;;;;;4.43;2.50;;;;;;;3.55;53.54;100302.94;4992015;28;20265;-65
2022/04/03 10:52:22;;;;;;;6.07;2.87;;;;;;;3.52;54.48;100316.38;4993202;28;20779;-64
2022/04/03 10:54:59;;;;;;;7.93;1.90;;;;;;;3.52;54.51;100319.00;4974725;28;20367;-65
2022/04/03 10:57:35;;;;;;;4.63;2.53;;;;;;;3.61;54.81;100326.13;4992146;28;20039;-63
2022/04/03 11:00:10;;;;;;;2.93;1.87;;;;;;;3.65;54.56;100322.28;4991871;28;20278;-63
2022/04/03 11:02:35;;;;;;;6.90;1.87;;;;;;;3.66;55.57;100308.97;4992137;28;20644;-63
2022/04/03 11:05:23;;;;;;;7.43;3.13;;;;;;;3.66;54.81;100318.66;4987975;28;20278;-66
2022/04/03 11:08:20;;;;;;;6.53;2.20;;;;;;;3.55;54.43;100316.13;4981443;28;20541;-63
2022/04/03 11:10:57;;;;;;;5.63;1.67;;;;;;;3.28;54.76;100306.09;4992077;28;20273;-63
2022/04/03 11:13:34;;;;;;;4.43;2.30;;;;;;;3.34;55.28;100313.47;4991818;28;20262;-62
2022/04/03 11:16:02;;;;;;;20.33;3.83;;;;;;;3.51;54.50;100309.44;4991966;28;20276;-63
2022/04/03 11:18:35;;;;;;;3.77;2.30;;;;;;;3.54;54.26;100317.09;4992103;28;20285;-63
2022/04/03 11:21:39;;;;;;;14.60;3.07;;;;;;;3.62;54.56;100312.84;4975003;28;20910;-64
2022/04/03 11:24:10;;;;;;;20.27;2.90;;;;;;;3.80;53.82;100305.19;4956602;28;20309;-68
2022/04/03 11:26:38;;;;;;;11.63;2.50;;;;;;;3.80;53.71;100299.91;4973243;28;20274;-69